Time;durP1;ratioP1;P1;durP2;ratioP2;P2;SDS_P1;SDS_P2;PMS_P1;PMS_P2;Temp;Humidity;BMP_temperature;BMP_pressure;BME280_temperature;BME280_humidity;BME280_pressure;Samples;Min_cycle;Max_cycle;Signal;HPM_P1;HPM_P2
2021/12/28 00:00:57;;;;;;;473.65;94.60;;;128.00;2252.80;;;;;;5042134;28;20038;-57
2021/12/28 00:03:23;;;;;;;377.90;82.22;;;128.00;2252.80;;;;;;5041090;28;20033;-57
2021/12/28 00:05:48;;;;;;;355.40;86.43;;;103.30;2227.20;;;;;;5043406;28;20432;-58
2021/12/28 00:08:15;;;;;;;456.90;178.23;;;103.20;2227.20;;;;;;5042392;28;20527;-57
2021/12/28 00:10:41;;;;;;;392.38;87.70;;;103.30;2227.20;;;;;;5040664;28;20079;-58
2021/12/28 00:13:07;;;;;;;308.38;76.88;;;103.30;2227.20;;;;;;5037311;28;20022;-58
2021/12/28 00:15:46;;;;;;;520.92;118.97;;;103.30;2227.20;;;;;;5032403;28;20028;-58
2021/12/28 00:18:12;;;;;;;378.60;87.50;;;103.30;2227.20;;;;;;5032146;28;20027;-57
2021/12/28 00:20:44;;;;;;;348.08;79.45;;;103.30;2227.20;;;;;;5031307;28;20100;-58
2021/12/28 00:23:13;;;;;;;392.95;101.45;;;103.20;2227.20;;;;;;5032134;28;20021;-58
2021/12/28 00:25:40;;;;;;;250.98;69.32;;;103.10;2227.20;;;;;;5032151;28;20038;-59
2021/12/28 00:28:06;;;;;;;305.60;62.88;;;103.10;2227.20;;;;;;5032422;28;20032;-57
2021/12/28 00:30:32;;;;;;;231.75;59.25;;;102.80;2227.20;;;;;;5032119;28;20034;-61
2021/12/28 00:32:58;;;;;;;290.35;71.30;;;102.90;2227.20;;;;;;5032324;28;20076;-57
2021/12/28 00:35:30;;;;;;;266.50;64.45;;;103.00;2227.20;;;;;;5031985;28;20025;-58
2021/12/28 00:37:57;;;;;;;308.73;71.13;;;103.00;2227.20;;;;;;5032059;28;20025;-58
2021/12/28 00:40:24;;;;;;;452.92;95.05;;;103.00;2227.20;;;;;;5032358;28;20022;-58
2021/12/28 00:42:50;;;;;;;200.25;55.10;;;103.10;2227.20;;;;;;5032062;28;20033;-57
2021/12/28 00:45:17;;;;;;;187.57;60.00;;;103.10;2227.20;;;;;;5032107;28;20392;-57
2021/12/28 00:47:43;;;;;;;220.27;72.88;;;103.20;2227.20;;;;;;5031750;28;20049;-58
2021/12/28 00:50:12;;;;;;;241.98;69.82;;;103.30;2227.20;;;;;;5031650;28;20036;-58
2021/12/28 00:52:38;;;;;;;173.25;44.50;;;128.00;2252.80;;;;;;5031697;28;20528;-58
2021/12/28 00:55:05;;;;;;;192.00;82.63;;;103.30;2227.20;;;;;;5031937;28;20025;-58
2021/12/28 00:57:31;;;;;;;132.05;48.35;;;128.00;2252.80;;;;;;5031498;28;20029;-58
2021/12/28 00:59:57;;;;;;;131.27;50.20;;;128.00;2252.80;;;;;;5031703;28;20104;-59
2021/12/28 01:02:23;;;;;;;219.20;45.60;;;103.30;2227.20;;;;;;5031393;28;20080;-58
2021/12/28 01:04:49;;;;;;;125.90;43.15;;;128.00;2252.80;;;;;;5030165;28;20134;-58
2021/12/28 01:07:15;;;;;;;148.40;45.33;;;128.00;2252.80;;;;;;5031474;28;20024;-58
2021/12/28 01:09:42;;;;;;;117.88;39.67;;;128.10;2252.80;;;;;;5031539;28;20029;-58
2021/12/28 01:12:09;;;;;;;364.80;75.80;;;128.10;2252.80;;;;;;5031651;28;20598;-58
2021/12/28 01:14:35;;;;;;;119.35;43.67;;;128.20;2252.80;;;;;;5031523;28;20029;-58
2021/12/28 01:17:02;;;;;;;100.15;36.83;;;128.10;2252.80;;;;;;5031228;28;20029;-59
2021/12/28 01:19:28;;;;;;;105.30;41.40;;;128.20;2252.80;;;;;;5031350;28;20022;-58
2021/12/28 01:21:54;;;;;;;137.38;49.83;;;103.30;2227.20;;;;;;5031205;28;20037;-57
2021/12/28 01:24:20;;;;;;;187.13;49.55;;;103.30;2227.20;;;;;;5030984;28;20128;-58
2021/12/28 01:26:46;;;;;;;178.98;52.92;;;103.20;2227.20;;;;;;5031321;28;20071;-57
2021/12/28 01:29:12;;;;;;;216.35;61.42;;;103.10;2227.20;;;;;;5030843;28;20056;-57
2021/12/28 01:31:38;;;;;;;179.93;59.92;;;103.30;2227.20;;;;;;5030673;28;20063;-58
2021/12/28 01:34:05;;;;;;;175.48;47.92;;;103.30;2227.20;;;;;;5031149;28;20391;-58
2021/12/28 01:36:31;;;;;;;127.75;57.35;;;103.30;2227.20;;;;;;5030675;28;20395;-58
2021/12/28 01:38:59;;;;;;;165.00;58.22;;;128.10;2252.80;;;;;;5031042;28;20017;-58
2021/12/28 01:41:24;;;;;;;125.95;54.33;;;128.10;2252.80;;;;;;5031004;28;20043;-58
2021/12/28 01:43:58;;;;;;;118.55;45.47;;;103.30;2227.20;;;;;;5030507;28;20128;-58
2021/12/28 01:46:24;;;;;;;101.60;47.78;;;103.10;2227.20;;;;;;5030891;28;20026;-58
2021/12/28 01:48:50;;;;;;;157.23;46.83;;;103.20;2227.20;;;;;;5030585;28;20064;-58
2021/12/28 01:51:19;;;;;;;145.70;48.88;;;102.90;2227.20;;;;;;5030675;28;20025;-58
2021/12/28 01:53:46;;;;;;;150.23;46.25;;;103.00;2227.20;;;;;;5031002;28;20036;-58
2021/12/28 01:56:15;;;;;;;95.00;36.53;;;103.00;2227.20;;;;;;5030464;28;20530;-58
2021/12/28 01:58:42;;;;;;;120.80;44.13;;;103.20;2227.20;;;;;;5030325;28;20120;-57
2021/12/28 02:01:08;;;;;;;106.78;48.42;;;128.00;2252.80;;;;;;5030435;28;20088;-57
2021/12/28 02:03:37;;;;;;;120.20;41.38;;;128.00;2252.80;;;;;;5030521;28;20037;-58
2021/12/28 02:06:04;;;;;;;100.20;45.63;;;103.20;2227.20;;;;;;5030289;28;20033;-57
2021/12/28 02:08:29;;;;;;;110.28;48.17;;;103.30;2227.20;;;;;;5030634;28;20356;-56
2021/12/28 02:10:57;;;;;;;126.47;47.15;;;103.30;2227.20;;;;;;5030436;28;20069;-57
2021/12/28 02:13:26;;;;;;;118.63;41.70;;;128.00;2252.80;;;;;;5029038;28;20041;-57
2021/12/28 02:15:52;;;;;;;123.68;57.28;;;103.30;2227.20;;;;;;5030316;28;20387;-57
2021/12/28 02:18:21;;;;;;;148.38;49.90;;;128.00;2252.80;;;;;;5030462;28;20932;-57
2021/12/28 02:20:49;;;;;;;155.30;52.03;;;103.30;2227.20;;;;;;5030190;28;20029;-58
2021/12/28 02:23:16;;;;;;;87.47;41.33;;;103.20;2227.20;;;;;;5030080;28;20452;-58
2021/12/28 02:25:43;;;;;;;135.30;57.45;;;103.30;2227.20;;;;;;5030007;28;20167;-59
2021/12/28 02:28:11;;;;;;;110.03;46.35;;;103.30;2227.20;;;;;;5029978;28;20387;-58
2021/12/28 02:30:39;;;;;;;140.80;66.25;;;103.30;2227.20;;;;;;5030076;28;20037;-58
2021/12/28 02:33:05;;;;;;;80.35;41.50;;;103.30;2227.20;;;;;;5030261;28;20026;-58
2021/12/28 02:35:31;;;;;;;108.05;48.40;;;103.30;2227.20;;;;;;5030037;28;20037;-58
2021/12/28 02:37:57;;;;;;;109.65;44.17;;;128.00;2252.80;;;;;;5030356;28;20022;-57
2021/12/28 02:40:29;;;;;;;134.77;48.22;;;128.00;2252.80;;;;;;5030146;28;20032;-58
2021/12/28 02:42:56;;;;;;;106.07;43.75;;;103.30;2227.20;;;;;;5030234;28;20033;-58
2021/12/28 02:45:31;;;;;;;134.23;60.35;;;103.30;2227.20;;;;;;5033839;28;20400;-58
2021/12/28 02:47:57;;;;;;;128.55;46.72;;;103.20;2227.20;;;;;;5034177;28;20053;-58
2021/12/28 02:50:29;;;;;;;105.88;42.75;;;103.10;2227.20;;;;;;5034060;28;20112;-58
2021/12/28 02:52:55;;;;;;;114.50;41.17;;;103.20;2227.20;;;;;;5034057;28;20100;-58
2021/12/28 02:55:23;;;;;;;212.07;82.32;;;103.20;2227.20;;;;;;5034005;28;20052;-58
2021/12/28 02:57:53;;;;;;;207.50;76.28;;;103.20;2227.20;;;;;;5033839;28;20052;-58
2021/12/28 03:00:59;;;;;;;129.55;50.85;;;103.20;2227.20;;;;;;5033627;28;20104;-57
2021/12/28 03:03:27;;;;;;;119.60;46.55;;;103.30;2227.20;;;;;;5031618;28;20092;-58
2021/12/28 03:05:55;;;;;;;181.60;79.38;;;103.10;2227.20;;;;;;5031428;28;20080;-57
2021/12/28 03:08:23;;;;;;;215.40;54.67;;;103.10;2227.20;;;;;;5031392;28;20412;-60
2021/12/28 03:10:50;;;;;;;154.13;37.63;;;103.00;2227.20;;;;;;5031543;28;20486;-57
2021/12/28 03:13:23;;;;;;;84.10;29.70;;;103.10;2227.20;;;;;;5031383;28;20044;-58
2021/12/28 03:15:49;;;;;;;137.63;40.28;;;103.20;2227.20;;;;;;5031465;28;20026;-58
2021/12/28 03:18:15;;;;;;;116.93;38.33;;;103.00;2227.20;;;;;;5031532;28;20037;-58
2021/12/28 03:20:41;;;;;;;105.80;34.72;;;103.00;2227.20;;;;;;5031078;28;20236;-57
2021/12/28 03:23:07;;;;;;;102.35;28.67;;;102.90;2227.20;;;;;;5031338;28;20059;-58
2021/12/28 03:25:33;;;;;;;86.65;31.38;;;103.00;2227.20;;;;;;5031058;28;20041;-58
2021/12/28 03:28:02;;;;;;;116.15;42.80;;;102.90;2227.20;;;;;;5031022;28;20071;-58
2021/12/28 03:30:29;;;;;;;92.13;28.20;;;102.90;2227.20;;;;;;5030883;28;20075;-58
2021/12/28 03:32:55;;;;;;;125.53;34.53;;;102.90;2227.20;;;;;;5031200;28;20122;-58
2021/12/28 03:35:21;;;;;;;90.15;30.23;;;102.70;2227.20;;;;;;5030992;28;20061;-58
2021/12/28 03:37:47;;;;;;;159.30;37.83;;;102.80;2227.20;;;;;;5014458;28;20527;-58
2021/12/28 03:40:15;;;;;;;102.97;30.23;;;102.80;2227.20;;;;;;5032714;28;20033;-58
2021/12/28 03:42:42;;;;;;;189.48;44.67;;;102.70;2227.20;;;;;;5032965;28;20204;-58
2021/12/28 03:45:10;;;;;;;142.32;39.70;;;102.60;2227.20;;;;;;5033095;28;20033;-58
2021/12/28 03:47:36;;;;;;;106.28;33.03;;;102.50;2227.20;;;;;;5033211;28;20022;-57
2021/12/28 03:50:04;;;;;;;112.88;29.25;;;102.70;2227.20;;;;;;5033138;28;20586;-58
2021/12/28 03:52:30;;;;;;;89.20;26.83;;;102.80;2227.20;;;;;;5032608;28;20452;-57
2021/12/28 03:54:56;;;;;;;80.97;25.20;;;102.90;2227.20;;;;;;5032906;28;20028;-58
2021/12/28 03:57:21;;;;;;;120.47;34.83;;;103.00;2227.20;;;;;;5032621;28;20112;-58
2021/12/28 03:59:47;;;;;;;88.28;35.72;;;102.90;2227.20;;;;;;5032807;28;20112;-58
2021/12/28 04:02:13;;;;;;;85.13;32.80;;;103.00;2227.20;;;;;;5032429;28;20038;-58
2021/12/28 04:04:38;;;;;;;121.03;38.75;;;102.80;2227.20;;;;;;5032557;28;20041;-59
2021/12/28 04:07:07;;;;;;;111.13;35.08;;;102.90;2227.20;;;;;;5032683;28;20017;-58
2021/12/28 04:09:57;;;;;;;79.53;31.42;;;102.70;2227.20;;;;;;5032609;28;20432;-58
2021/12/28 04:12:23;;;;;;;146.27;42.65;;;102.80;2227.20;;;;;;5032333;28;20037;-58
2021/12/28 04:14:49;;;;;;;118.30;39.10;;;102.60;2227.20;;;;;;5031739;28;20044;-58
2021/12/28 04:17:14;;;;;;;134.38;30.42;;;102.60;2227.20;;;;;;5032555;28;20096;-58
2021/12/28 04:19:40;;;;;;;82.65;25.75;;;102.50;2227.20;;;;;;5032330;28;20128;-58
2021/12/28 04:22:07;;;;;;;106.55;34.17;;;102.50;2227.20;;;;;;5032297;28;20065;-57
2021/12/28 04:24:32;;;;;;;101.47;38.42;;;102.60;2227.20;;;;;;5032192;28;20037;-58
2021/12/28 04:26:58;;;;;;;118.45;33.63;;;102.70;2227.20;;;;;;5032334;28;20029;-58
2021/12/28 04:29:24;;;;;;;190.70;38.83;;;102.50;2227.20;;;;;;5032229;28;20110;-57
2021/12/28 04:31:50;;;;;;;136.05;44.50;;;102.40;2227.20;;;;;;5031988;28;20069;-57
2021/12/28 04:34:16;;;;;;;419.92;85.38;;;102.60;2227.20;;;;;;5032186;28;20079;-57
2021/12/28 04:36:42;;;;;;;223.15;46.13;;;102.50;2227.20;;;;;;5031906;28;20033;-57
2021/12/28 04:39:08;;;;;;;302.05;61.10;;;102.40;2227.20;;;;;;5032270;28;20055;-57
2021/12/28 04:41:37;;;;;;;237.23;54.83;;;77.70;2227.20;;;;;;5031946;28;20456;-57
2021/12/28 04:44:03;;;;;;;332.10;62.40;;;77.60;2227.20;;;;;;5031776;28;20128;-57
2021/12/28 04:46:29;;;;;;;356.02;63.63;;;77.70;2227.20;;;;;;5031922;28;20024;-57
2021/12/28 04:48:55;;;;;;;158.80;49.97;;;102.40;2227.20;;;;;;5032006;28;20021;-57
2021/12/28 04:51:22;;;;;;;437.75;72.72;;;102.50;2227.20;;;;;;5031738;28;20096;-56
2021/12/28 04:53:49;;;;;;;293.30;50.40;;;77.70;2227.20;;;;;;5031679;28;20025;-57
2021/12/28 04:56:15;;;;;;;371.88;55.05;;;77.50;2227.20;;;;;;5031668;28;20033;-57
2021/12/28 04:58:41;;;;;;;240.45;47.95;;;77.50;2227.20;;;;;;5031710;28;20047;-57
2021/12/28 05:01:07;;;;;;;348.30;47.90;;;77.50;2227.20;;;;;;5031590;28;20045;-57
2021/12/28 05:03:33;;;;;;;136.88;39.80;;;77.40;2227.20;;;;;;5031767;28;20037;-57
2021/12/28 05:05:58;;;;;;;169.98;40.17;;;77.60;2227.20;;;;;;5030867;28;20407;-58
2021/12/28 05:08:24;;;;;;;240.52;44.67;;;102.40;2227.20;;;;;;5031427;28;20057;-57
2021/12/28 05:10:51;;;;;;;228.15;41.20;;;77.60;2227.20;;;;;;5031307;28;20021;-57
2021/12/28 05:13:18;;;;;;;250.93;47.08;;;77.50;2227.20;;;;;;5031664;28;20029;-57
2021/12/28 05:15:45;;;;;;;113.32;34.15;;;77.50;2227.20;;;;;;5031636;28;20375;-57
2021/12/28 05:18:13;;;;;;;149.23;40.92;;;77.60;2227.20;;;;;;5031213;28;20022;-57
2021/12/28 05:20:39;;;;;;;196.70;49.60;;;77.70;2227.20;;;;;;5031207;28;20035;-56
2021/12/28 05:23:05;;;;;;;101.53;36.17;;;102.50;2227.20;;;;;;5030963;28;20112;-57
2021/12/28 05:25:33;;;;;;;220.35;42.38;;;102.50;2227.20;;;;;;5031097;28;20052;-56
2021/12/28 05:27:59;;;;;;;182.73;43.92;;;102.40;2227.20;;;;;;5031010;28;20053;-58
2021/12/28 05:30:25;;;;;;;325.70;55.38;;;102.40;2227.20;;;;;;5031043;28;20059;-58
2021/12/28 05:32:51;;;;;;;236.20;54.08;;;77.70;2227.20;;;;;;5030927;28;20096;-57
2021/12/28 05:35:17;;;;;;;132.55;41.50;;;102.40;2227.20;;;;;;5031228;28;20036;-57
2021/12/28 05:37:43;;;;;;;118.40;47.83;;;102.40;2227.20;;;;;;5030744;28;20041;-56
2021/12/28 05:40:11;;;;;;;136.07;47.63;;;102.60;2227.20;;;;;;5030778;28;20423;-57
2021/12/28 05:42:36;;;;;;;65.03;33.80;;;102.50;2227.20;;;;;;5030726;28;20391;-57
2021/12/28 05:45:03;;;;;;;347.30;65.75;;;102.40;2227.20;;;;;;5030846;28;20099;-57
2021/12/28 05:47:29;;;;;;;221.40;59.85;;;77.70;2227.20;;;;;;5030594;28;20029;-57
2021/12/28 05:49:55;;;;;;;276.63;54.03;;;77.60;2227.20;;;;;;5030783;28;20033;-56
2021/12/28 05:52:21;;;;;;;245.60;49.85;;;77.70;2227.20;;;;;;5030514;28;20148;-61
2021/12/28 05:54:46;;;;;;;252.40;69.50;;;102.50;2227.20;;;;;;5030683;28;20033;-56
2021/12/28 05:57:12;;;;;;;190.40;54.10;;;102.50;2227.20;;;;;;5030408;28;20468;-59
2021/12/28 05:59:39;;;;;;;238.20;64.82;;;77.60;2227.20;;;;;;5030680;28;20144;-57
2021/12/28 06:02:06;;;;;;;207.85;63.58;;;77.50;2227.20;;;;;;5030295;28;20132;-57
2021/12/28 06:04:32;;;;;;;171.50;53.28;;;77.70;2227.20;;;;;;5030444;28;20491;-56
2021/12/28 06:06:57;;;;;;;234.27;66.78;;;77.50;2227.20;;;;;;5030491;28;20029;-56
2021/12/28 06:09:23;;;;;;;107.15;46.75;;;77.70;2227.20;;;;;;5030336;28;20377;-57
2021/12/28 06:11:49;;;;;;;211.88;63.80;;;102.40;2227.20;;;;;;5030202;28;20021;-57
2021/12/28 06:14:15;;;;;;;110.65;53.65;;;102.50;2227.20;;;;;;5030442;28;20026;-57
2021/12/28 06:16:40;;;;;;;195.02;65.85;;;102.50;2227.20;;;;;;5030147;28;20037;-56
2021/12/28 06:19:07;;;;;;;169.57;56.13;;;102.50;2227.20;;;;;;5036787;28;20104;-60
2021/12/28 06:21:34;;;;;;;112.78;42.78;;;102.40;2227.20;;;;;;5050137;28;20386;-58
2021/12/28 06:24:01;;;;;;;182.38;80.28;;;102.40;2227.20;;;;;;5050062;28;20033;-57
2021/12/28 06:26:28;;;;;;;120.38;63.28;;;102.40;2227.20;;;;;;5050078;28;20029;-57
2021/12/28 06:28:54;;;;;;;82.63;46.17;;;102.40;2227.20;;;;;;5050365;28;20190;-58
2021/12/28 06:31:19;;;;;;;68.80;34.78;;;102.60;2227.20;;;;;;5049917;28;20033;-58
2021/12/28 06:33:45;;;;;;;87.35;34.45;;;102.50;2227.20;;;;;;5050143;28;20037;-58
2021/12/28 06:36:11;;;;;;;190.45;80.20;;;102.40;2227.20;;;;;;5049947;28;20037;-60
2021/12/28 06:38:37;;;;;;;99.72;48.92;;;102.60;2227.20;;;;;;5049986;28;20032;-58
2021/12/28 06:41:03;;;;;;;148.05;56.33;;;102.50;2227.20;;;;;;5050010;28;20105;-58
2021/12/28 06:43:29;;;;;;;116.95;47.88;;;77.70;2227.20;;;;;;5049816;28;20183;-58
2021/12/28 06:45:55;;;;;;;228.75;79.45;;;77.70;2227.20;;;;;;5050156;28;20116;-57
2021/12/28 06:48:21;;;;;;;148.90;50.17;;;77.70;2227.20;;;;;;5049778;28;20021;-57
2021/12/28 06:50:48;;;;;;;167.88;44.60;;;102.50;2227.20;;;;;;5050039;28;20037;-58
2021/12/28 06:53:13;;;;;;;186.02;42.05;;;102.60;2227.20;;;;;;5049695;28;20040;-59
2021/12/28 06:55:39;;;;;;;92.43;27.15;;;102.60;2227.20;;;;;;5049727;28;20029;-58
2021/12/28 06:58:05;;;;;;;248.85;51.67;;;102.70;2227.20;;;;;;5049800;28;20063;-58
2021/12/28 07:00:32;;;;;;;178.90;39.50;;;102.70;2227.20;;;;;;5049450;28;20471;-58
2021/12/28 07:02:57;;;;;;;115.80;33.22;;;102.60;2227.20;;;;;;5049775;28;20040;-59
2021/12/28 07:05:23;;;;;;;170.85;52.03;;;102.60;2227.20;;;;;;5049614;28;20052;-58
2021/12/28 07:07:49;;;;;;;172.98;57.75;;;102.70;2227.20;;;;;;5049665;28;20025;-58
2021/12/28 07:10:15;;;;;;;201.80;42.78;;;102.60;2227.20;;;;;;5049616;28;20356;-58
2021/12/28 07:12:41;;;;;;;136.10;31.25;;;102.60;2227.20;;;;;;5049452;28;20108;-58
2021/12/28 07:15:07;;;;;;;103.57;25.73;;;102.40;2227.20;;;;;;5049718;28;20029;-58
2021/12/28 07:17:33;;;;;;;217.55;51.40;;;102.60;2227.20;;;;;;5049583;28;20548;-58
2021/12/28 07:19:59;;;;;;;129.35;40.35;;;102.70;2227.20;;;;;;5049482;28;20073;-58
2021/12/28 07:22:25;;;;;;;208.73;67.43;;;102.60;2227.20;;;;;;5049569;28;20111;-58
2021/12/28 07:24:50;;;;;;;214.13;77.72;;;77.70;2227.20;;;;;;5049384;28;20037;-58
2021/12/28 07:27:16;;;;;;;130.80;50.28;;;102.70;2227.20;;;;;;5049551;28;20458;-58
2021/12/28 07:29:42;;;;;;;240.90;54.80;;;102.90;2227.20;;;;;;5050814;28;20032;-58
2021/12/28 07:32:08;;;;;;;206.23;64.13;;;102.60;2227.20;;;;;;5053137;28;20431;-58
2021/12/28 07:34:34;;;;;;;149.85;56.67;;;102.50;2227.20;;;;;;5053452;28;20035;-58
2021/12/28 07:37:00;;;;;;;148.70;44.88;;;102.80;2227.20;;;;;;5053178;28;20079;-58
2021/12/28 07:39:27;;;;;;;171.88;51.20;;;102.80;2227.20;;;;;;5053211;28;20383;-58
2021/12/28 07:41:53;;;;;;;152.40;56.08;;;102.70;2227.20;;;;;;5052967;28;20017;-58
2021/12/28 07:44:18;;;;;;;190.02;61.67;;;102.90;2227.20;;;;;;5053061;28;20572;-58
2021/12/28 07:46:44;;;;;;;339.33;196.77;;;102.80;2227.20;;;;;;5053065;28;20471;-58
2021/12/28 07:49:10;;;;;;;244.43;68.30;;;102.80;2227.20;;;;;;5051228;28;20502;-59
2021/12/28 07:51:36;;;;;;;223.05;77.35;;;102.80;2227.20;;;;;;5052925;28;20021;-58
2021/12/28 07:54:02;;;;;;;179.43;66.57;;;102.70;2227.20;;;;;;5052777;28;20040;-55
2021/12/28 07:56:27;;;;;;;134.52;53.97;;;102.80;2227.20;;;;;;5052803;28;20538;-57
2021/12/28 07:58:54;;;;;;;148.52;58.42;;;102.90;2227.20;;;;;;5052418;28;20029;-56
2021/12/28 08:01:19;;;;;;;292.00;91.45;;;103.00;2227.20;;;;;;5052400;28;20049;-63
2021/12/28 08:03:45;;;;;;;127.82;64.80;;;102.90;2227.20;;;;;;5052821;28;20037;-56
2021/12/28 08:06:11;;;;;;;142.13;50.97;;;102.90;2227.20;;;;;;5043814;28;20446;-57
2021/12/28 08:08:37;;;;;;;72.20;37.50;;;102.70;2227.20;;;;;;5032810;28;20029;-57
2021/12/28 08:11:03;;;;;;;93.93;43.97;;;102.60;2227.20;;;;;;5032475;28;20068;-57
2021/12/28 08:13:29;;;;;;;123.45;69.65;;;102.50;2227.20;;;;;;5032462;28;20056;-57
2021/12/28 08:15:55;;;;;;;91.30;35.47;;;102.70;2227.20;;;;;;5032577;28;20029;-57
2021/12/28 08:18:21;;;;;;;149.02;41.85;;;102.70;2227.20;;;;;;5032349;28;20022;-57
2021/12/28 08:20:47;;;;;;;201.88;68.78;;;102.90;2227.20;;;;;;5032627;28;20036;-57
2021/12/28 08:23:14;;;;;;;129.52;61.08;;;102.70;2227.20;;;;;;5032198;28;20060;-57
2021/12/28 08:25:40;;;;;;;152.32;75.47;;;102.50;2227.20;;;;;;5032117;28;20124;-57
2021/12/28 08:28:06;;;;;;;100.15;59.50;;;102.60;2227.20;;;;;;5032293;28;20070;-57
2021/12/28 08:30:35;;;;;;;90.95;51.10;;;102.80;2227.20;;;;;;5032000;28;20041;-57
2021/12/28 08:33:02;;;;;;;149.68;65.00;;;103.00;2227.20;;;;;;5032229;28;20053;-56
2021/12/28 08:35:29;;;;;;;110.40;57.53;;;102.90;2227.20;;;;;;5032213;28;20476;-57
2021/12/28 08:37:54;;;;;;;124.85;58.90;;;102.80;2227.20;;;;;;5032118;28;20030;-57
2021/12/28 08:40:20;;;;;;;100.55;56.25;;;103.00;2227.20;;;;;;5031744;28;20033;-57
2021/12/28 08:42:46;;;;;;;126.35;65.72;;;103.00;2227.20;;;;;;5031313;28;20487;-57
2021/12/28 08:45:13;;;;;;;94.78;47.60;;;103.10;2227.20;;;;;;5031710;28;20047;-57
2021/12/28 08:47:39;;;;;;;104.65;51.03;;;103.00;2227.20;;;;;;5031982;28;20025;-57
2021/12/28 08:50:08;;;;;;;89.38;44.15;;;103.10;2227.20;;;;;;5032042;28;20032;-57
2021/12/28 08:52:34;;;;;;;79.95;47.50;;;103.20;2227.20;;;;;;5031889;28;20025;-57
2021/12/28 08:55:00;;;;;;;97.50;52.10;;;103.30;2227.20;;;;;;5031712;28;20067;-57
2021/12/28 08:57:26;;;;;;;149.05;61.50;;;128.10;2252.80;;;;;;5031797;28;20429;-57
2021/12/28 08:59:51;;;;;;;194.05;100.15;;;128.20;2252.80;;;;;;5031475;28;20116;-57
2021/12/28 09:02:17;;;;;;;121.65;55.47;;;128.30;2252.80;;;;;;5031414;28;20045;-57
2021/12/28 09:04:43;;;;;;;267.10;75.72;;;128.50;2252.80;;;;;;5031559;28;20056;-57
2021/12/28 09:07:16;;;;;;;189.82;61.42;;;128.40;2252.80;;;;;;5031448;28;20129;-57
2021/12/28 09:09:43;;;;;;;;;;;128.40;2252.80;;;;;;5031861;28;20034;-57
2021/12/28 09:12:09;;;;;;;267.08;65.25;;;128.40;2252.80;;;;;;5031269;28;19905;-57
2021/12/28 09:14:35;;;;;;;166.50;61.35;;;128.60;2252.80;;;;;;5031320;28;20029;-57
2021/12/28 09:17:02;;;;;;;165.38;57.67;;;128.80;2252.80;;;;;;5031173;28;20426;-57
2021/12/28 09:19:29;;;;;;;199.00;59.83;;;128.80;2252.80;;;;;;5031100;28;20025;-57
2021/12/28 09:21:55;;;;;;;157.93;58.60;;;128.90;2252.80;;;;;;5031449;28;20045;-57
2021/12/28 09:24:21;;;;;;;334.75;116.25;;;128.90;2252.80;;;;;;5030967;28;20068;-57
2021/12/28 09:26:49;;;;;;;508.70;309.13;;;128.80;2252.80;;;;;;5031233;28;20521;-57
2021/12/28 09:29:14;;;;;;;417.98;204.95;;;128.90;2252.80;;;;;;5030709;28;20094;-56
2021/12/28 09:31:40;;;;;;;275.80;126.10;;;153.60;2252.80;;;;;;5030835;28;20480;-58
2021/12/28 09:34:06;;;;;;;197.48;89.65;;;153.70;2252.80;;;;;;5030034;28;20075;-56
2021/12/28 09:36:32;;;;;;;135.90;69.22;;;153.80;2252.80;;;;;;5030866;28;20032;-58
2021/12/28 09:38:57;;;;;;;215.57;74.78;;;153.70;2252.80;;;;;;5030833;28;20018;-64
2021/12/28 09:41:23;;;;;;;452.08;241.55;;;153.80;2252.80;;;;;;5030944;28;20026;-57
2021/12/28 09:43:49;;;;;;;435.23;158.75;;;154.00;2252.80;;;;;;5030638;28;20025;-62
2021/12/28 09:46:15;;;;;;;378.88;117.78;;;153.60;2252.80;;;;;;5030816;28;20026;-57
2021/12/28 09:48:41;;;;;;;457.00;146.38;;;153.60;2252.80;;;;;;5029683;28;20032;-56
2021/12/28 09:51:07;;;;;;;276.40;112.53;;;128.90;2252.80;;;;;;5030812;28;20022;-56
2021/12/28 09:53:35;;;;;;;433.90;143.60;;;128.40;2252.80;;;;;;5030377;28;20033;-57
2021/12/28 09:56:02;;;;;;;368.02;162.52;;;128.30;2252.80;;;;;;5030699;28;20053;-58
2021/12/28 09:58:28;;;;;;;450.27;163.88;;;128.40;2252.80;;;;;;5037535;28;20075;-65
2021/12/28 10:00:54;;;;;;;499.80;179.95;;;128.30;2252.80;;;;;;5039913;28;20072;-57
2021/12/28 10:03:20;;;;;;;401.88;146.43;;;128.60;2252.80;;;;;;5038873;28;20065;-57
2021/12/28 10:05:45;;;;;;;474.65;173.70;;;128.40;2252.80;;;;;;5038782;28;20029;-57
2021/12/28 10:08:13;;;;;;;539.80;196.52;;;128.40;2252.80;;;;;;5035153;28;20025;-57
2021/12/28 10:10:43;;;;;;;534.30;172.63;;;128.80;2252.80;;;;;;5039004;28;20029;-57
2021/12/28 10:13:18;;;;;;;406.77;206.57;;;153.60;2252.80;;;;;;5037766;28;20017;-62
2021/12/28 10:15:46;;;;;;;256.05;115.30;;;153.70;2252.80;;;;;;5038455;28;20021;-65
2021/12/28 10:18:12;;;;;;;259.73;120.50;;;153.80;2252.80;;;;;;5036586;28;20033;-56
2021/12/28 10:20:50;;;;;;;298.48;133.18;;;153.80;2252.80;;;;;;5038708;28;20094;-59
2021/12/28 10:23:29;;;;;;;297.95;129.75;;;153.80;2252.80;;;;;;5038514;28;20057;-64
2021/12/28 10:26:01;;;;;;;286.60;137.05;;;153.60;2252.80;;;;;;5038102;28;20079;-58
2021/12/28 10:28:33;;;;;;;334.45;142.32;;;153.80;2252.80;;;;;;5038022;28;20017;-57
2021/12/28 10:31:05;;;;;;;318.92;153.90;;;153.90;2252.80;;;;;;5038485;28;20029;-63
2021/12/28 10:33:34;;;;;;;325.03;168.00;;;154.30;2252.80;;;;;;5038024;28;20166;-64
2021/12/28 10:36:04;;;;;;;323.80;143.40;;;154.30;2252.80;;;;;;5038416;28;20037;-65
2021/12/28 10:38:33;;;;;;;274.08;130.85;;;154.40;2252.80;;;;;;5024900;28;20482;-58
2021/12/28 10:41:07;;;;;;;329.73;145.77;;;154.50;2252.80;;;;;;5038667;28;20060;-58
2021/12/28 10:43:35;;;;;;;371.15;159.65;;;154.30;2252.80;;;;;;5037863;28;20026;-65
2021/12/28 10:46:05;;;;;;;353.67;155.85;;;179.20;2252.80;;;;;;5038318;28;20563;-57
2021/12/28 10:48:40;;;;;;;404.88;161.32;;;179.20;2252.80;;;;;;5039636;28;20521;-64
2021/12/28 10:51:13;;;;;;;412.40;176.23;;;154.20;2252.80;;;;;;5039565;28;20025;-59
2021/12/28 10:56:46;;;;;;;519.45;257.30;;;154.00;2252.80;;;;;;5038027;28;20032;-64
2021/12/28 10:59:14;;;;;;;290.30;142.48;;;153.80;2252.80;;;;;;5037248;28;20036;-65
2021/12/28 11:01:42;;;;;;;382.52;176.25;;;154.20;2252.80;;;;;;5038154;28;20072;-58
2021/12/28 11:04:13;;;;;;;339.40;160.35;;;154.20;2252.80;;;;;;5039722;28;20051;-64
2021/12/28 11:06:41;;;;;;;306.00;150.55;;;154.20;2252.80;;;;;;5042103;28;20045;-58
2021/12/28 11:09:11;;;;;;;345.23;163.98;;;154.40;2252.80;;;;;;5041334;28;20029;-60
2021/12/28 11:11:40;;;;;;;289.95;141.88;;;154.50;2252.80;;;;;;5041982;28;20029;-58
2021/12/28 11:14:09;;;;;;;345.40;160.18;;;179.20;2252.80;;;;;;5041741;28;20018;-58
2021/12/28 11:16:35;;;;;;;296.67;157.02;;;154.40;2252.80;;;;;;5041782;28;20075;-57
2021/12/28 11:19:11;;;;;;;370.77;180.15;;;154.40;2252.80;;;;;;5042107;28;20044;-65
2021/12/28 11:21:50;;;;;;;389.98;194.95;;;179.20;2252.80;;;;;;5041893;28;20780;-57
2021/12/28 11:24:17;;;;;;;341.13;187.55;;;179.40;2252.80;;;;;;5041325;28;20109;-61
2021/12/28 11:26:46;;;;;;;342.83;174.45;;;179.40;2252.80;;;;;;5041434;28;20502;-57
2021/12/28 11:29:15;;;;;;;416.58;200.73;;;179.30;2252.80;;;;;;5043084;28;20087;-60
2021/12/28 11:31:41;;;;;;;424.45;196.18;;;179.20;2252.80;;;;;;5041853;28;20380;-56
2021/12/28 11:34:18;;;;;;;443.58;202.85;;;179.40;2252.80;;;;;;5041299;28;20033;-59
2021/12/28 11:36:49;;;;;;;435.58;182.85;;;179.30;2252.80;;;;;;5042528;28;20025;-57
2021/12/28 11:39:17;;;;;;;358.10;174.05;;;154.50;2252.80;;;;;;5041045;28;20034;-58
2021/12/28 11:41:45;;;;;;;473.55;200.63;;;154.30;2252.80;;;;;;5041319;28;20463;-57
2021/12/28 11:44:12;;;;;;;396.42;179.60;;;154.00;2252.80;;;;;;5042512;28;20118;-57
2021/12/28 11:46:38;;;;;;;403.88;174.75;;;153.90;2252.80;;;;;;5041395;28;20496;-58
2021/12/28 11:49:06;;;;;;;484.38;221.57;;;154.00;2252.80;;;;;;5041385;28;20478;-66
2021/12/28 11:51:32;;;;;;;534.38;246.95;;;154.00;2252.80;;;;;;5048364;28;20045;-57
2021/12/28 11:54:05;;;;;;;463.83;217.65;;;154.00;2252.80;;;;;;5037548;28;20048;-66